Time;durP1;ratioP1;P1;durP2;ratioP2;P2;SDS_P1;SDS_P2;PMS_P1;PMS_P2;Temp;Humidity;BMP_temperature;BMP_pressure;BME280_temperature;BME280_humidity;BME280_pressure;Samples;Min_cycle;Max_cycle;Signal;HPM_P1;HPM_P2
2021/12/17 00:00:09;;;;;;;103.65;45.17;;;;;;;7.43;91.44;103908.81;4984588;28;20022;-91
2021/12/17 00:03:09;;;;;;;103.00;45.65;;;;;;;7.40;91.62;103899.22;4964936;28;20030;-91
2021/12/17 00:08:15;;;;;;;107.70;45.47;;;;;;;7.37;91.18;103908.59;4985117;28;20042;-91
2021/12/17 00:10:43;;;;;;;104.50;44.85;;;;;;;7.41;91.50;103913.94;4984387;28;20023;-91
2021/12/17 00:13:10;;;;;;;105.45;44.80;;;;;;;7.37;91.50;103904.28;4984707;28;20026;-91
2021/12/17 00:15:36;;;;;;;94.68;42.30;;;;;;;7.41;91.54;103906.16;4984855;28;20031;-92
2021/12/17 00:18:10;;;;;;;94.63;43.58;;;;;;;7.42;91.57;103912.25;4983858;28;20675;-91
2021/12/17 00:40:08;;;;;;;101.75;43.83;;;;;;;7.41;91.54;103911.34;4963729;28;20118;-91
2021/12/17 00:51:19;;;;;;;111.43;45.50;;;;;;;7.46;90.94;103908.06;4981558;28;20053;-91
2021/12/17 00:53:36;;;;;;;104.28;42.92;;;;;;;7.43;90.98;103904.53;4981312;28;20031;-91
2021/12/17 00:56:01;;;;;;;103.88;43.05;;;;;;;7.48;91.18;103906.41;4985475;28;20034;-91
2021/12/17 00:58:27;;;;;;;104.10;43.15;;;;;;;7.41;91.13;103895.81;4964920;28;20049;-91
2021/12/17 01:00:52;;;;;;;103.28;42.60;;;;;;;7.47;91.10;103907.22;4985878;28;20038;-91
2021/12/17 01:03:17;;;;;;;104.07;42.38;;;;;;;7.37;91.24;103888.75;4985483;28;20037;-91
2021/12/17 01:05:43;;;;;;;98.75;40.35;;;;;;;7.43;91.22;103907.13;4983401;28;20036;-91
2021/12/17 01:08:09;;;;;;;99.85;40.30;;;;;;;7.39;91.39;103892.28;4982410;28;20387;-91
2021/12/17 01:10:46;;;;;;;105.90;41.45;;;;;;;7.38;91.53;103890.50;4983709;28;20031;-91
2021/12/17 01:13:12;;;;;;;104.97;42.28;;;;;;;7.41;91.43;103885.44;4983149;28;20045;-91
2021/12/17 01:15:40;;;;;;;109.00;42.90;;;;;;;7.40;91.47;103894.03;4982194;28;20034;-91
2021/12/17 01:18:10;;;;;;;102.78;42.05;;;;;;;7.37;91.43;103880.97;4987063;28;20399;-90
2021/12/17 01:23:43;;;;;;;117.25;41.97;;;;;;;7.38;91.60;103884.47;4984160;28;20034;-91
2021/12/17 01:36:32;;;;;;;105.22;40.38;;;;;;;7.39;91.25;103881.91;4983288;28;20511;-91
2021/12/17 01:41:49;;;;;;;105.28;41.53;;;;;;;7.36;91.47;103876.63;4981859;28;20121;-91
2021/12/17 01:44:15;;;;;;;113.82;42.60;;;;;;;7.40;91.30;103883.69;4984437;28;20484;-91
2021/12/17 01:46:43;;;;;;;105.15;41.38;;;;;;;7.41;91.38;103882.84;4980467;28;20047;-91
2021/12/17 02:00:08;;;;;;;116.75;42.58;;;;;;;7.42;91.20;103886.34;4987008;28;20038;-91
2021/12/17 02:02:41;;;;;;;117.88;44.90;;;;;;;7.34;91.23;103873.13;4966660;28;20080;-91
2021/12/17 02:05:08;;;;;;;111.80;45.10;;;;;;;7.38;91.41;103880.16;4961578;28;20058;-90
2021/12/17 02:07:34;;;;;;;121.13;45.35;;;;;;;7.36;91.43;103874.03;4963642;28;20027;-91
2021/12/17 02:31:33;;;;;;;124.25;45.30;;;;;;;7.32;91.50;103900.66;4981559;28;20027;-91
2021/12/17 02:34:07;;;;;;;124.45;47.17;;;;;;;7.28;91.73;103897.06;4982499;28;20030;-91
2021/12/17 02:36:34;;;;;;;115.93;45.60;;;;;;;7.26;91.31;103898.69;4962185;28;20023;-90
2021/12/17 02:39:38;;;;;;;110.50;43.15;;;;;;;7.23;91.59;103900.31;4964609;28;20046;-91
2021/12/17 02:47:19;;;;;;;106.90;42.22;;;;;;;7.23;91.62;103893.44;4982362;28;20905;-91
2021/12/17 02:49:46;;;;;;;111.55;43.72;;;;;;;7.21;91.46;103891.59;4980943;28;20031;-91
2021/12/17 02:52:12;;;;;;;110.82;44.28;;;;;;;7.26;91.78;103895.25;4981143;28;20329;-90
2021/12/17 02:54:38;;;;;;;109.63;43.13;;;;;;;7.23;91.65;103890.84;4980325;28;20022;-91
2021/12/17 02:57:05;;;;;;;112.20;43.70;;;;;;;7.22;92.10;103893.34;4969434;28;20060;-91
2021/12/17 02:59:36;;;;;;;115.13;44.55;;;;;;;7.29;91.95;103905.72;4982275;28;20018;-91
2021/12/17 03:02:04;;;;;;;116.88;45.05;;;;;;;7.27;91.78;103903.06;4985389;28;20171;-91
2021/12/17 03:04:30;;;;;;;119.05;45.47;;;;;;;7.27;91.86;103910.81;4979834;28;20034;-91
2021/12/17 03:06:57;;;;;;;125.05;45.75;;;;;;;7.21;92.04;103895.06;4982287;28;20048;-90
2021/12/17 03:09:38;;;;;;;121.13;44.10;;;;;;;7.20;92.02;103892.41;4981065;28;20412;-91
2021/12/17 03:12:14;;;;;;;126.38;46.28;;;;;;;7.23;92.13;103901.19;4983230;28;20727;-91
2021/12/17 03:14:47;;;;;;;122.72;43.58;;;;;;;7.25;91.64;103901.25;4967345;28;20022;-90
2021/12/17 03:17:20;;;;;;;126.53;42.05;;;;;;;7.17;91.99;103897.50;4981766;28;20117;-91
2021/12/17 03:23:27;;;;;;;121.35;42.78;;;;;;;7.21;92.31;103891.59;4973227;28;20053;-91
2021/12/17 03:25:34;;;;;;;113.13;39.42;;;;;;;7.26;92.13;103901.28;4886230;29;20133;-91
2021/12/17 03:28:00;;;;;;;110.65;38.42;;;;;;;7.23;91.76;103898.63;4893856;29;20037;-91
2021/12/17 03:30:25;;;;;;;106.18;36.88;;;;;;;7.22;91.91;103895.94;4932230;28;20578;-91
2021/12/17 03:32:50;;;;;;;96.53;34.60;;;;;;;7.26;92.17;103895.25;4985458;28;20022;-91
2021/12/17 03:35:15;;;;;;;105.78;35.85;;;;;;;7.23;92.00;103889.94;4986619;28;20034;-91
2021/12/17 03:37:41;;;;;;;98.60;33.47;;;;;;;7.27;91.97;103891.84;4985540;28;20031;-91
2021/12/17 03:40:06;;;;;;;89.32;32.53;;;;;;;7.23;91.92;103889.94;4969260;28;20381;-91
2021/12/17 03:42:32;;;;;;;83.85;29.70;;;;;;;7.22;92.04;103888.19;4987121;28;20034;-90
2021/12/17 03:44:57;;;;;;;86.40;31.08;;;;;;;7.22;91.99;103898.53;4986530;28;20022;-90
2021/12/17 03:47:22;;;;;;;81.78;29.70;;;;;;;7.22;91.82;103898.53;4989443;28;20061;-92
2021/12/17 03:49:48;;;;;;;75.57;28.00;;;;;;;7.17;91.95;103894.91;4993278;28;20399;-90
2021/12/17 03:52:16;;;;;;;81.10;29.58;;;;;;;7.14;91.72;103899.16;4985203;28;20364;-90
2021/12/17 03:54:42;;;;;;;85.18;29.00;;;;;;;7.10;92.31;103883.41;4967097;28;20033;-91
2021/12/17 03:57:10;;;;;;;75.57;27.48;;;;;;;7.17;91.92;103897.50;4985341;28;20027;-91
2021/12/17 03:59:36;;;;;;;72.85;26.77;;;;;;;7.19;91.92;103893.22;4966587;28;20457;-91
2021/12/17 04:02:01;;;;;;;73.80;26.98;;;;;;;7.17;91.90;103890.59;4983349;28;20026;-91
2021/12/17 04:04:26;;;;;;;75.47;26.92;;;;;;;7.16;91.87;103886.25;4983789;28;20024;-91
2021/12/17 04:06:52;;;;;;;74.72;26.63;;;;;;;7.19;91.90;103893.22;4986831;28;20030;-90
2021/12/17 04:09:20;;;;;;;77.10;26.63;;;;;;;7.20;91.98;103895.91;4985529;28;20053;-91
2021/12/17 04:11:46;;;;;;;71.95;25.90;;;;;;;7.14;91.95;103888.78;4985585;28;20018;-91
2021/12/17 04:14:12;;;;;;;69.15;25.30;;;;;;;7.12;92.03;103893.03;4985081;28;20026;-91
2021/12/17 04:16:38;;;;;;;73.47;26.73;;;;;;;7.21;91.99;103901.94;4983933;28;20031;-91
2021/12/17 04:19:03;;;;;;;71.93;24.58;;;;;;;7.15;92.16;103892.25;4986012;28;20022;-91
2021/12/17 04:21:28;;;;;;;70.00;24.67;;;;;;;7.18;91.88;103894.06;4984580;28;20395;-92
2021/12/17 04:23:54;;;;;;;72.60;24.60;;;;;;;7.16;91.89;103893.16;4985216;28;20034;-91
2021/12/17 04:26:21;;;;;;;69.45;25.98;;;;;;;7.13;91.94;103894.78;4982282;28;20015;-91
2021/12/17 04:28:50;;;;;;;70.93;25.33;;;;;;;7.15;92.16;103881.88;4984625;28;20026;-91
2021/12/17 04:31:17;;;;;;;67.55;23.98;;;;;;;7.21;92.06;103889.91;4970480;28;20033;-91
2021/12/17 04:33:43;;;;;;;73.25;25.17;;;;;;;7.19;91.90;103880.28;4962222;28;20113;-91
2021/12/17 04:36:11;;;;;;;70.78;25.58;;;;;;;7.20;92.02;103889.81;4968923;28;20137;-92
2021/12/17 04:38:37;;;;;;;71.55;24.73;;;;;;;7.18;91.77;103891.47;4966810;28;20026;-91
2021/12/17 04:41:38;;;;;;;71.85;24.88;;;;;;;7.14;92.18;103881.03;4986077;28;20026;-91
2021/12/17 04:57:29;;;;;;;64.55;22.75;;;;;;;7.18;91.83;103889.78;4985548;28;20097;-91
2021/12/17 04:59:58;;;;;;;62.92;23.25;;;;;;;7.15;92.06;103881.88;4983836;28;20030;-92
2021/12/17 05:02:27;;;;;;;61.10;21.85;;;;;;;7.11;91.61;103880.00;4982326;28;20027;-91
2021/12/17 05:04:54;;;;;;;57.10;20.70;;;;;;;7.12;91.82;103892.13;4964842;28;20518;-92
2021/12/17 05:07:22;;;;;;;58.97;20.77;;;;;;;7.16;91.89;103900.91;4986395;28;20018;-91
2021/12/17 05:10:18;;;;;;;57.47;20.63;;;;;;;7.06;91.58;103885.00;4962248;28;20479;-92
2021/12/17 05:18:25;;;;;;;54.22;20.05;;;;;;;7.08;91.79;103885.94;4983312;28;20089;-91
2021/12/17 05:21:00;;;;;;;49.72;19.20;;;;;;;7.10;91.62;103915.38;4974233;28;20480;-91
2021/12/17 05:23:33;;;;;;;53.22;20.17;;;;;;;6.99;91.70;103901.16;4964613;28;20032;-91
2021/12/17 05:26:00;;;;;;;55.30;19.85;;;;;;;7.02;91.78;103895.19;4966858;28;20031;-91
2021/12/17 05:28:26;;;;;;;49.58;19.48;;;;;;;7.05;91.79;103900.50;4984032;28;20022;-92
2021/12/17 05:30:52;;;;;;;52.28;19.65;;;;;;;7.06;91.61;103899.69;4983158;28;20026;-90
2021/12/17 05:33:20;;;;;;;48.30;18.77;;;;;;;7.02;91.47;103896.06;4961406;28;20026;-92
2021/12/17 05:35:46;;;;;;;48.92;17.98;;;;;;;7.06;91.77;103903.13;4980372;28;20049;-92
2021/12/17 05:38:13;;;;;;;46.63;18.35;;;;;;;7.07;91.73;103899.72;4977133;28;20062;-91
2021/12/17 05:40:39;;;;;;;53.17;19.13;;;;;;;7.04;91.93;103899.59;4974029;28;20031;-92
2021/12/17 05:43:06;;;;;;;46.75;17.73;;;;;;;7.01;91.77;103898.59;4973920;28;20435;-91
2021/12/17 05:48:09;;;;;;;42.45;16.67;;;;;;;7.04;91.68;103907.38;4975029;28;20125;-92
2021/12/17 05:50:39;;;;;;;45.47;17.50;;;;;;;7.06;92.06;103905.72;4973765;28;20484;-91
2021/12/17 05:53:05;;;;;;;44.78;17.20;;;;;;;7.05;91.63;103900.50;4975262;28;20130;-92
2021/12/17 05:55:32;;;;;;;45.88;18.13;;;;;;;7.06;91.78;103907.44;4956303;28;20097;-92
2021/12/17 05:57:57;;;;;;;46.20;17.42;;;;;;;7.04;91.67;103912.53;4956682;28;20062;-91
2021/12/17 06:00:24;;;;;;;43.15;16.75;;;;;;;7.04;91.32;103909.94;4974458;28;20100;-91
2021/12/17 06:02:50;;;;;;;44.13;17.20;;;;;;;6.98;91.75;103904.56;4957053;28;20042;-92
2021/12/17 06:05:16;;;;;;;44.90;17.60;;;;;;;7.03;91.47;103915.94;4957215;28;20030;-91
2021/12/17 06:07:41;;;;;;;42.08;17.15;;;;;;;6.96;91.37;103906.19;4956911;28;20033;-92
2021/12/17 06:10:09;;;;;;;44.00;17.08;;;;;;;6.98;91.57;103909.72;4974993;28;20027;-92
2021/12/17 06:12:38;;;;;;;43.88;17.58;;;;;;;6.94;91.64;103919.06;4958575;28;20085;-91
2021/12/17 06:15:06;;;;;;;46.17;17.75;;;;;;;6.99;91.70;103921.84;4956509;28;20039;-92
2021/12/17 06:17:31;;;;;;;41.65;17.17;;;;;;;6.95;91.76;103927.72;4963659;28;20438;-91
2021/12/17 06:19:57;;;;;;;45.55;17.55;;;;;;;6.98;91.53;103925.28;4960902;28;20030;-92
2021/12/17 06:22:23;;;;;;;43.20;16.98;;;;;;;6.99;91.95;103927.03;4979720;28;20732;-92
2021/12/17 06:24:48;;;;;;;42.78;17.85;;;;;;;6.95;91.68;103919.97;4974867;28;20057;-92
2021/12/17 06:27:20;;;;;;;40.15;17.38;;;;;;;6.95;91.49;103926.00;4977948;28;20030;-92
2021/12/17 06:29:46;;;;;;;40.95;16.42;;;;;;;7.00;91.44;103928.81;4980660;28;20026;-90
2021/12/17 06:32:11;;;;;;;41.67;16.63;;;;;;;6.96;91.67;103920.00;4979927;28;20031;-92
2021/12/17 06:34:38;;;;;;;39.90;15.88;;;;;;;6.97;91.83;103915.72;4956652;28;20495;-92
2021/12/17 06:37:04;;;;;;;41.42;16.13;;;;;;;6.93;91.72;103916.44;4956864;28;20030;-91
2021/12/17 06:39:32;;;;;;;40.92;16.73;;;;;;;6.94;91.86;103919.06;4972996;28;20432;-91
2021/12/17 06:41:57;;;;;;;38.55;15.90;;;;;;;6.95;92.25;103914.78;4973381;28;20033;-91
2021/12/17 06:44:25;;;;;;;41.38;17.58;;;;;;;6.93;91.79;103922.47;4974032;28;20098;-91
2021/12/17 06:54:58;;;;;;;39.00;17.20;;;;;;;6.91;91.81;103921.56;4973191;28;20091;-92
2021/12/17 07:00:18;;;;;;;41.25;17.05;;;;;;;6.95;92.11;103935.50;4974194;28;20069;-92
2021/12/17 07:10:59;;;;;;;44.78;18.48;;;;;;;6.91;92.19;103934.50;4974370;28;20101;-91
2021/12/17 07:32:33;;;;;;;44.90;17.95;;;;;;;6.91;91.88;103913.78;4979849;28;20022;-90
2021/12/17 07:39:53;;;;;;;41.63;17.45;;;;;;;6.97;92.14;103911.44;4974889;28;20038;-91
2021/12/17 07:42:19;;;;;;;44.53;17.33;;;;;;;6.96;92.24;103909.66;4972200;28;20396;-92
2021/12/17 07:44:44;;;;;;;44.72;18.30;;;;;;;6.95;92.36;103896.66;4974291;28;20073;-92
2021/12/17 07:47:09;;;;;;;44.20;17.75;;;;;;;6.91;92.24;103903.44;4973548;28;20042;-91
2021/12/17 07:49:34;;;;;;;39.13;17.30;;;;;;;7.00;91.92;103913.28;4956440;28;20073;-92
2021/12/17 07:52:00;;;;;;;45.00;18.13;;;;;;;6.99;92.07;103921.84;4957998;28;20356;-92
2021/12/17 07:54:27;;;;;;;42.97;18.17;;;;;;;6.99;91.89;103921.84;4977982;28;20062;-92
2021/12/17 07:56:52;;;;;;;44.58;18.27;;;;;;;7.02;92.11;103919.38;4955728;28;20023;-91
2021/12/17 07:59:18;;;;;;;42.47;18.33;;;;;;;6.98;92.14;103913.19;4958405;28;20041;-92
2021/12/17 08:01:43;;;;;;;42.90;18.33;;;;;;;6.96;92.17;103911.38;4976041;28;20034;-91
2021/12/17 08:04:10;;;;;;;39.65;17.23;;;;;;;7.05;92.49;103928.97;4977729;28;20034;-91
2021/12/17 08:06:37;;;;;;;41.13;17.90;;;;;;;7.00;92.42;103931.38;4971931;28;20026;-92
2021/12/17 08:09:06;;;;;;;42.47;17.75;;;;;;;7.06;92.28;103939.38;4958686;28;20030;-91
2021/12/17 08:11:38;;;;;;;41.38;17.00;;;;;;;7.01;92.03;103935.72;4974141;28;20018;-91
2021/12/17 08:14:08;;;;;;;42.70;18.02;;;;;;;7.03;92.16;103935.78;4973554;28;20045;-92
2021/12/17 08:16:44;;;;;;;43.13;18.23;;;;;;;7.04;91.75;103946.19;4986189;28;20058;-91
2021/12/17 08:24:55;;;;;;;47.13;18.17;;;;;;;6.99;92.42;103937.38;4982256;28;20053;-92
2021/12/17 08:27:44;;;;;;;43.60;17.85;;;;;;;6.97;92.38;103939.03;4983514;28;20023;-92
2021/12/17 08:32:40;;;;;;;48.78;18.90;;;;;;;6.99;92.82;103937.38;4981907;28;20042;-91
2021/12/17 08:35:06;;;;;;;48.95;18.95;;;;;;;7.03;92.95;103948.75;4981582;28;20109;-92
2021/12/17 08:37:32;;;;;;;49.00;20.05;;;;;;;7.05;92.82;103950.56;4978663;28;20054;-92
2021/12/17 08:39:58;;;;;;;46.13;18.35;;;;;;;7.05;92.74;103950.56;4961159;28;20054;-92
2021/12/17 08:42:23;;;;;;;47.63;18.98;;;;;;;6.98;92.95;103933.91;4977074;28;20127;-92
2021/12/17 08:44:48;;;;;;;50.15;18.98;;;;;;;7.03;92.91;103943.56;4981240;28;20057;-92
2021/12/17 08:47:13;;;;;;;48.47;19.00;;;;;;;7.02;93.14;103937.47;4977339;28;20058;-91
2021/12/17 08:49:40;;;;;;;50.92;18.45;;;;;;;7.04;92.97;103945.31;4960131;28;20030;-91
2021/12/17 08:52:08;;;;;;;49.33;18.35;;;;;;;7.03;93.10;103952.19;4958249;28;20030;-92
2021/12/17 08:54:34;;;;;;;46.75;18.58;;;;;;;7.03;93.14;103938.38;4985028;28;20041;-92
2021/12/17 08:56:59;;;;;;;50.33;19.15;;;;;;;7.04;93.06;103938.44;4977489;28;20031;-91
2021/12/17 08:59:24;;;;;;;49.17;19.27;;;;;;;7.06;93.32;103935.91;4961605;28;20032;-92
2021/12/17 09:01:50;;;;;;;44.35;18.48;;;;;;;7.11;93.15;103940.44;4980072;28;20105;-91
2021/12/17 09:04:16;;;;;;;48.35;18.60;;;;;;;7.09;93.20;103949.84;4960211;28;20026;-92
2021/12/17 09:06:41;;;;;;;50.97;18.13;;;;;;;7.09;93.12;103952.44;4980878;28;20030;-94
2021/12/17 09:09:07;;;;;;;44.92;18.08;;;;;;;7.12;93.03;103964.63;4976803;28;20034;-94
2021/12/17 09:11:32;;;;;;;44.97;17.67;;;;;;;7.13;93.19;103964.69;4978213;28;20510;-93
2021/12/17 09:14:00;;;;;;;44.33;17.65;;;;;;;7.12;93.15;103962.94;4978019;28;20037;-94
2021/12/17 09:16:26;;;;;;;44.15;17.63;;;;;;;7.11;93.14;103968.03;4963048;28;20122;-94
2021/12/17 09:18:53;;;;;;;41.17;17.05;;;;;;;7.17;93.02;103983.81;4962156;28;20129;-95
2021/12/17 09:21:19;;;;;;;42.80;16.98;;;;;;;7.19;93.07;103983.84;4978973;28;20487;-93
2021/12/17 09:23:45;;;;;;;41.53;17.02;;;;;;;7.17;93.13;103986.41;4977068;28;20118;-93
2021/12/17 09:26:12;;;;;;;42.90;16.80;;;;;;;7.17;92.97;103977.78;4979061;28;20043;-95
2021/12/17 09:28:38;;;;;;;43.10;17.65;;;;;;;7.20;93.18;103967.50;4960482;28;20043;-94
2021/12/17 09:31:05;;;;;;;42.08;16.30;;;;;;;7.16;93.11;103960.47;4963406;28;20089;-94
2021/12/17 09:33:31;;;;;;;42.03;16.27;;;;;;;7.30;93.05;103982.59;4962013;28;20029;-95
2021/12/17 09:35:57;;;;;;;43.78;17.13;;;;;;;7.31;93.08;103976.59;4962656;28;20023;-95
2021/12/17 09:38:22;;;;;;;44.53;16.85;;;;;;;7.25;92.88;103971.16;4976164;28;20034;-94
2021/12/17 09:40:49;;;;;;;42.78;16.67;;;;;;;7.27;92.75;103979.88;4958859;28;20022;-92
2021/12/17 09:43:15;;;;;;;40.70;15.27;;;;;;;7.28;92.78;103979.94;4982434;28;20042;-95
2021/12/17 09:45:41;;;;;;;40.00;15.93;;;;;;;7.33;92.55;103985.31;4976823;28;20050;-93
2021/12/17 09:48:06;;;;;;;39.13;15.68;;;;;;;7.36;92.67;103990.59;4969538;28;20045;-95
2021/12/17 09:50:32;;;;;;;37.75;14.82;;;;;;;7.36;92.62;103990.59;4978773;28;20030;-93
2021/12/17 09:52:57;;;;;;;37.67;14.80;;;;;;;7.40;92.58;103997.66;4981866;28;20041;-94
2021/12/17 09:55:23;;;;;;;40.00;14.73;;;;;;;7.38;92.38;103996.72;4979216;28;20027;-94
2021/12/17 09:57:49;;;;;;;37.63;15.10;;;;;;;7.39;92.61;103995.88;4956560;28;20033;-90
2021/12/17 10:00:20;;;;;;;42.45;15.93;;;;;;;7.39;92.19;104001.06;4976104;28;20096;-91
2021/12/17 10:02:48;;;;;;;41.80;16.17;;;;;;;7.43;92.12;104013.31;4974761;28;20045;-90
2021/12/17 10:05:23;;;;;;;37.03;15.68;;;;;;;7.44;92.03;104014.19;4959893;28;20424;-90
2021/12/17 10:08:00;;;;;;;37.83;15.50;;;;;;;7.42;92.27;104016.72;4959567;28;20031;-93
2021/12/17 10:10:34;;;;;;;42.13;16.10;;;;;;;7.40;92.10;104008.00;4953995;28;20419;-94
2021/12/17 10:13:11;;;;;;;41.30;16.30;;;;;;;7.43;91.85;104015.91;4979052;28;20031;-92
2021/12/17 10:15:39;;;;;;;39.92;15.93;;;;;;;7.43;92.02;104021.09;4977488;28;20482;-93
2021/12/17 10:18:04;;;;;;;40.83;16.38;;;;;;;7.44;92.21;104012.50;4961631;28;20190;-92
2021/12/17 10:20:34;;;;;;;42.05;16.60;;;;;;;7.46;92.14;104016.84;4978223;28;20185;-94
2021/12/17 10:23:04;;;;;;;43.30;17.08;;;;;;;7.44;92.20;104020.28;4981737;28;20057;-91
2021/12/17 10:25:31;;;;;;;40.53;16.80;;;;;;;7.48;91.89;104015.22;4977054;28;20080;-92
2021/12/17 10:28:03;;;;;;;41.63;16.30;;;;;;;7.51;92.15;104011.03;4978134;28;20037;-92
2021/12/17 10:30:30;;;;;;;38.88;15.88;;;;;;;7.50;92.00;104008.38;4979640;28;20038;-94
2021/12/17 10:32:59;;;;;;;33.40;13.85;;;;;;;7.51;91.80;104016.22;4974808;28;20022;-96
2021/12/17 10:35:32;;;;;;;37.85;15.50;;;;;;;7.51;91.76;104005.84;5171020;23;20117;-89
2021/12/17 10:38:04;;;;;;;35.00;15.68;;;;;;;7.46;91.88;104011.69;4947653;28;20039;-94
2021/12/17 10:40:37;;;;;;;34.45;14.77;;;;;;;7.54;92.03;104015.44;4931563;28;20134;-92
2021/12/17 10:43:21;;;;;;;31.77;13.90;;;;;;;7.52;92.09;104010.19;4925141;28;20444;-93
2021/12/17 10:46:10;;;;;;;33.58;14.18;;;;;;;7.55;92.06;104007.72;4936370;28;20031;-89
2021/12/17 10:51:43;;;;;;;27.58;12.88;;;;;;;7.63;92.27;104020.97;4942755;28;20035;-91
2021/12/17 10:54:18;;;;;;;29.58;13.48;;;;;;;7.61;92.39;104020.03;4925833;28;20031;-88
2021/12/17 10:56:50;;;;;;;29.85;13.18;;;;;;;7.64;92.26;104021.84;4927991;28;20551;-92
2021/12/17 10:59:19;;;;;;;24.90;11.25;;;;;;;7.65;91.79;104027.09;4945659;28;20535;-94
2021/12/17 11:01:52;;;;;;;22.00;10.80;;;;;;;7.64;91.72;104027.03;4946399;28;20035;-92
2021/12/17 11:04:19;;;;;;;22.35;10.70;;;;;;;7.63;91.16;104026.16;4937454;28;20031;-93
2021/12/17 11:06:52;;;;;;;20.75;10.90;;;;;;;7.60;91.37;104015.66;4930939;28;20039;-91
2021/12/17 11:09:53;;;;;;;20.10;10.32;;;;;;;7.67;91.67;104020.28;4944468;28;20042;-91
2021/12/17 11:12:28;;;;;;;22.45;10.73;;;;;;;7.68;91.25;104019.44;4944919;28;21391;-90
2021/12/17 11:15:18;;;;;;;21.40;10.65;;;;;;;7.66;91.23;104015.91;4944326;28;20106;-91
2021/12/17 11:17:46;;;;;;;20.20;10.25;;;;;;;7.68;91.00;104008.19;4922722;28;20098;-91
2021/12/17 11:20:18;;;;;;;22.50;10.73;;;;;;;7.62;90.96;104014.03;4946198;28;20042;-90
2021/12/17 11:22:45;;;;;;;20.90;10.82;;;;;;;7.70;90.98;104012.59;4931878;28;20039;-90
2021/12/17 11:25:12;;;;;;;19.58;9.77;;;;;;;7.63;90.81;104000.25;4942570;28;20027;-92
2021/12/17 11:27:44;;;;;;;19.13;9.80;;;;;;;7.67;91.10;104002.13;4944846;28;20091;-94
2021/12/17 11:30:14;;;;;;;19.75;10.60;;;;;;;7.73;91.25;104004.94;4951764;28;20055;-91
2021/12/17 11:32:42;;;;;;;17.90;10.32;;;;;;;7.75;91.04;104002.41;5566716;23;20144;-94
2021/12/17 11:35:08;;;;;;;21.40;10.27;;;;;;;7.73;90.99;103986.78;4991481;28;20092;-93
2021/12/17 11:37:34;;;;;;;19.13;10.38;;;;;;;7.75;90.88;103994.66;4977189;28;20411;-94
2021/12/17 11:40:11;;;;;;;19.83;10.85;;;;;;;7.72;90.95;103978.97;4983440;28;20060;-94
2021/12/17 11:42:59;;;;;;;18.58;10.38;;;;;;;7.83;91.28;103987.16;4982030;28;20041;-92
2021/12/17 11:45:26;;;;;;;19.95;10.82;;;;;;;7.79;91.18;103983.53;4983524;28;20129;-94
2021/12/17 11:47:57;;;;;;;17.88;10.35;;;;;;;7.78;90.66;103984.38;4980623;28;20157;-93
2021/12/17 11:50:23;;;;;;;16.48;9.77;;;;;;;7.77;90.59;103981.72;4985203;28;20046;-94
2021/12/17 11:52:50;;;;;;;19.77;10.60;;;;;;;7.80;90.20;103974.06;4986469;28;20030;-95
2021/12/17 11:55:28;;;;;;;36.75;21.38;;;;;;;7.74;90.44;103982.50;4987991;28;20034;-95
2021/12/17 11:58:00;;;;;;;49.03;27.17;;;;;;;7.72;90.68;103972.06;4995050;28;20116;-96
2021/12/17 12:00:47;;;;;;;41.88;24.67;;;;;;;7.69;90.52;103990.09;4990402;28;20105;-94
2021/12/17 12:03:15;;;;;;;40.15;23.10;;;;;;;7.70;90.74;103985.81;4987476;28;20064;-93
2021/12/17 12:05:43;;;;;;;30.85;19.70;;;;;;;7.64;90.69;103980.38;4970390;28;20038;-94
2021/12/17 12:08:27;;;;;;;28.25;18.52;;;;;;;7.74;90.45;103991.16;4965983;28;20568;-89
2021/12/17 12:11:03;;;;;;;33.63;21.50;;;;;;;7.68;90.40;103990.94;4988058;28;20545;-89
2021/12/17 12:13:39;;;;;;;29.10;18.83;;;;;;;7.63;90.44;103992.47;4985687;28;20060;-90
2021/12/17 12:16:09;;;;;;;28.45;16.42;;;;;;;7.59;90.08;103990.59;4983766;28;20060;-90
2021/12/17 12:18:44;;;;;;;23.52;14.98;;;;;;;7.59;90.35;103988.00;4981789;28;20649;-89
2021/12/17 12:21:11;;;;;;;22.35;13.85;;;;;;;7.59;89.90;103990.59;4981979;28;20458;-85
2021/12/17 12:23:40;;;;;;;18.60;11.90;;;;;;;7.59;90.25;103982.81;4985053;28;20027;-85
2021/12/17 12:26:08;;;;;;;17.38;11.43;;;;;;;7.59;90.23;103982.81;4984511;28;20038;-85
2021/12/17 12:28:49;;;;;;;16.75;10.18;;;;;;;7.62;90.45;103976.84;4981021;28;20038;-91
2021/12/17 12:31:36;;;;;;;17.27;10.18;;;;;;;7.64;90.49;103981.28;4982598;28;20030;-86
2021/12/17 12:34:02;;;;;;;13.50;8.63;;;;;;;7.66;90.28;103976.16;4941391;28;20077;-83
2021/12/17 12:37:00;;;;;;;13.35;8.30;;;;;;;7.68;90.19;103978.00;4961653;28;20038;-86
2021/12/17 12:39:49;;;;;;;9.88;6.97;;;;;;;7.67;90.14;103978.81;4964041;28;20041;-83
2021/12/17 12:42:14;;;;;;;9.68;6.63;;;;;;;7.67;89.72;103976.22;4962508;28;20092;-85
2021/12/17 12:44:40;;;;;;;8.48;6.47;;;;;;;7.64;89.57;103972.63;4963075;28;20042;-82
2021/12/17 12:47:06;;;;;;;8.73;6.60;;;;;;;7.64;89.45;103980.38;4963121;28;20197;-84
2021/12/17 12:49:46;;;;;;;8.20;6.40;;;;;;;7.64;89.77;103978.69;4960774;28;20085;-89
2021/12/17 12:52:55;;;;;;;8.35;6.10;;;;;;;7.64;89.76;103978.69;4962612;28;20125;-91
2021/12/17 12:55:33;;;;;;;8.95;5.85;;;;;;;7.59;89.52;103975.03;4956949;28;20482;-87
2021/12/17 12:57:58;;;;;;;8.70;5.57;;;;;;;7.61;89.13;103975.97;4962587;28;20491;-89
2021/12/17 13:00:27;;;;;;;6.88;5.30;;;;;;;7.65;89.21;103977.88;4963768;28;20057;-87
2021/12/17 13:02:56;;;;;;;8.30;5.30;;;;;;;7.60;89.23;103975.09;4962442;28;20475;-88
2021/12/17 13:05:23;;;;;;;9.07;5.70;;;;;;;7.58;89.28;103978.44;4963690;28;20092;-94
2021/12/17 13:07:53;;;;;;;9.13;5.53;;;;;;;7.57;89.20;103977.59;4964641;28;20388;-91
2021/12/17 13:10:36;;;;;;;7.47;5.40;;;;;;;7.57;89.61;103976.69;4967723;28;20067;-94
2021/12/17 13:13:15;;;;;;;7.03;5.07;;;;;;;7.57;89.38;103980.19;4965956;28;20104;-92
2021/12/17 13:24:14;;;;;;;7.05;5.10;;;;;;;7.42;88.55;103962.34;4966116;28;20045;-90
2021/12/17 13:26:44;;;;;;;7.30;5.40;;;;;;;7.49;88.37;103967.75;4963750;28;20034;-93
2021/12/17 13:29:15;;;;;;;6.40;4.72;;;;;;;7.48;87.60;103966.84;4964090;28;20031;-92
2021/12/17 13:31:48;;;;;;;5.80;4.82;;;;;;;7.49;87.28;103963.44;4958233;28;20070;-91
2021/12/17 13:34:20;;;;;;;7.35;4.97;;;;;;;7.43;87.35;103956.34;4977370;28;20435;-91
2021/12/17 13:36:55;;;;;;;5.55;4.50;;;;;;;7.37;87.69;103960.41;4964736;28;20030;-91
2021/12/17 13:39:23;;;;;;;6.40;4.78;;;;;;;7.37;87.52;103961.28;4987189;28;20304;-92
2021/12/17 13:41:49;;;;;;;7.03;4.55;;;;;;;7.35;88.00;103968.09;4963500;28;20046;-94
2021/12/17 13:44:24;;;;;;;5.63;4.32;;;;;;;7.38;88.00;103969.94;4991440;28;20038;-89
2021/12/17 13:46:49;;;;;;;6.38;4.80;;;;;;;7.36;87.92;103966.41;4987100;28;20034;-91
2021/12/17 13:49:15;;;;;;;7.68;4.68;;;;;;;7.34;87.76;103971.53;4987471;28;20064;-88
2021/12/17 13:51:40;;;;;;;5.60;4.15;;;;;;;7.37;87.76;103970.75;4965003;28;20026;-90
2021/12/17 13:54:05;;;;;;;6.00;4.03;;;;;;;7.38;87.29;103968.22;4982367;28;20038;-91
2021/12/17 13:56:31;;;;;;;5.32;3.42;;;;;;;7.34;87.46;103960.28;4963764;28;20102;-95
2021/12/17 13:59:01;;;;;;;4.70;3.65;;;;;;;7.32;87.47;103961.91;4964598;28;20046;-93
2021/12/17 14:01:27;;;;;;;4.53;3.42;;;;;;;7.34;87.55;103960.28;4965474;28;20042;-91
2021/12/17 14:03:52;;;;;;;5.72;3.85;;;;;;;7.26;87.29;103958.25;4969035;28;20121;-93
2021/12/17 14:06:25;;;;;;;5.60;3.90;;;;;;;7.30;87.56;103967.06;4965619;28;20148;-92
2021/12/17 14:08:51;;;;;;;5.72;3.60;;;;;;;7.33;87.14;103964.59;4963801;28;20030;-92
2021/12/17 14:11:21;;;;;;;5.38;3.75;;;;;;;7.28;87.01;103966.09;4984601;28;20026;-88
2021/12/17 14:13:47;;;;;;;6.97;4.00;;;;;;;7.32;87.39;103969.69;4981263;28;20033;-91
2021/12/17 14:16:14;;;;;;;4.60;3.40;;;;;;;7.30;86.97;103969.66;4984754;28;20590;-90
2021/12/17 14:18:41;;;;;;;4.78;3.50;;;;;;;7.27;87.15;103974.69;4982815;28;20042;-92
2021/12/17 14:21:06;;;;;;;4.18;3.08;;;;;;;7.22;87.56;103964.16;4983025;28;20034;-92